^^
Saratoga-Weather Station Historical Data
Daily Summary for May 9, 2020 Units:  Both    English   Metric
Daily Weekly Monthly Yearly Custom
  High: Low: Average:
Temperature: 67.8 °F /  19.9 °C 54 °F /  12.2 °C 59.9 °F /  15.5 °C
Dew Point: 57.6 °F /  14.2 °C 48.7 °F /  9.3 °C 52.2 °F /  11.2 °C
Humidity: 90% 56% 76%
Wind Speed: 9mph /  14.5km/h - 1.8mph /  2.9km/h
Wind Gust: 10mph /  16.1km/h - -
Wind- - SW
Pressure: 30 in /  1015.6 hPa 29.9 in /  1013.5 hPa -
Precipitation: 0.05 in /  1.3 mm    
Historical Graphs
 
 
Tabular Data for May 9, 2020
Time Temperature Dew Point Pressure Wind Wind Speed Wind Gust Humidity Rainfall Rate (Hourly) solar
00:03 58.8 °F /  14.9 °C 49.5 °F /  9.7 °C 29.9in /  1013.9hPa NW 2mph /  3.2km/h 2mph /  3.2km/h 71% 0in /  0.0mm 0 W/m2
00:08 58.6 °F /  14.8 °C 49.3 °F /  9.6 °C 29.9in /  1013.9hPa WNW 0.9mph /  1.4km/h 4mph /  6.4km/h 71% 0in /  0.0mm 0 W/m2
00:13 58.6 °F /  14.8 °C 49.3 °F /  9.6 °C 29.9in /  1013.9hPa WNW 2mph /  3.2km/h 3mph /  4.8km/h 71% 0in /  0.0mm 0 W/m2
00:18 58.6 °F /  14.8 °C 49.3 °F /  9.6 °C 29.9in /  1013.9hPa NW 0.9mph /  1.4km/h 2mph /  3.2km/h 71% 0in /  0.0mm 0 W/m2
00:23 58.6 °F /  14.8 °C 49.3 °F /  9.6 °C 29.9in /  1013.9hPa Calm   2mph /  3.2km/h 71% 0in /  0.0mm 0 W/m2
00:28 58.5 °F /  14.7 °C 49.1 °F /  9.5 °C 29.9in /  1013.9hPa NE 2mph /  3.2km/h 3mph /  4.8km/h 71% 0in /  0.0mm 0 W/m2
00:33 58.5 °F /  14.7 °C 49.1 °F /  9.5 °C 29.9in /  1013.9hPa North 0.9mph /  1.4km/h 4mph /  6.4km/h 71% 0in /  0.0mm 0 W/m2
00:38 58.5 °F /  14.7 °C 49.5 °F /  9.7 °C 29.9in /  1013.9hPa West 0.9mph /  1.4km/h 4mph /  6.4km/h 72% 0in /  0.0mm 0 W/m2
00:43 58.5 °F /  14.7 °C 49.5 °F /  9.7 °C 30in /  1014.2hPa NNW 2mph /  3.2km/h 6mph /  9.7km/h 72% 0in /  0.0mm 0 W/m2
00:48 58.5 °F /  14.7 °C 49.5 °F /  9.7 °C 30in /  1014.2hPa SW 2mph /  3.2km/h 3mph /  4.8km/h 72% 0in /  0.0mm 0 W/m2
00:53 58.5 °F /  14.7 °C 49.5 °F /  9.7 °C 30in /  1014.2hPa WNW 2.9mph /  4.7km/h 5mph /  8km/h 72% 0in /  0.0mm 0 W/m2
00:58 58.3 °F /  14.6 °C 49.3 °F /  9.6 °C 30in /  1014.2hPa WNW 2mph /  3.2km/h 6mph /  9.7km/h 72% 0in /  0.0mm 0 W/m2
01:03 58.3 °F /  14.6 °C 49.3 °F /  9.6 °C 30in /  1014.2hPa WNW 4.9mph /  7.9km/h 5mph /  8km/h 72% 0in /  0.0mm 0 W/m2
01:08 58.3 °F /  14.6 °C 49.3 °F /  9.6 °C 30in /  1014.2hPa WSW 6.9mph /  11.1km/h 7mph /  11.3km/h 72% 0in /  0.0mm 0 W/m2
01:13 58.3 °F /  14.6 °C 49.3 °F /  9.6 °C 30in /  1014.2hPa NW 0.9mph /  1.4km/h 2mph /  3.2km/h 72% 0in /  0.0mm 0 W/m2
01:19 58.1 °F /  14.5 °C 49.5 °F /  9.7 °C 29.9in /  1013.9hPa WSW 2mph /  3.2km/h 7mph /  11.3km/h 73% 0in /  0.0mm 0 W/m2
01:24 58.1 °F /  14.5 °C 49.5 °F /  9.7 °C 30in /  1014.2hPa West 2.9mph /  4.7km/h 6mph /  9.7km/h 73% 0in /  0.0mm 0 W/m2
01:29 58.1 °F /  14.5 °C 49.5 °F /  9.7 °C 29.9in /  1013.9hPa WNW 2mph /  3.2km/h 7mph /  11.3km/h 73% 0in /  0.0mm 0 W/m2
01:34 57.9 °F /  14.4 °C 49.3 °F /  9.6 °C 29.9in /  1013.9hPa WSW 4.9mph /  7.9km/h 5mph /  8km/h 73% 0in /  0.0mm 0 W/m2
01:39 57.9 °F /  14.4 °C 49.6 °F /  9.8 °C 29.9in /  1013.9hPa WNW 2.9mph /  4.7km/h 7mph /  11.3km/h 74% 0in /  0.0mm 0 W/m2
01:44 57.9 °F /  14.4 °C 49.6 °F /  9.8 °C 29.9in /  1013.9hPa North 2.9mph /  4.7km/h 3mph /  4.8km/h 74% 0in /  0.0mm 0 W/m2
01:49 57.7 °F /  14.3 °C 49.5 °F /  9.7 °C 29.9in /  1013.9hPa East 0.9mph /  1.4km/h 3mph /  4.8km/h 74% 0in /  0.0mm 0 W/m2
01:54 57.7 °F /  14.3 °C 49.5 °F /  9.7 °C 29.9in /  1013.9hPa Calm   1mph /  1.6km/h 74% 0in /  0.0mm 0 W/m2
01:59 57.6 °F /  14.2 °C 49.3 °F /  9.6 °C 29.9in /  1013.9hPa ENE 0.9mph /  1.4km/h 3mph /  4.8km/h 74% 0in /  0.0mm 0 W/m2
02:04 57.6 °F /  14.2 °C 49.6 °F /  9.8 °C 29.9in /  1013.9hPa WNW 0.9mph /  1.4km/h 5mph /  8km/h 75% 0in /  0.0mm 0 W/m2
02:09 57.6 °F /  14.2 °C 49.6 °F /  9.8 °C 29.9in /  1013.9hPa NNW 2.9mph /  4.7km/h 3mph /  4.8km/h 75% 0in /  0.0mm 0 W/m2
02:14 57.4 °F /  14.1 °C 49.5 °F /  9.7 °C 29.9in /  1013.9hPa WSW 4mph /  6.4km/h 7mph /  11.3km/h 75% 0in /  0.0mm 0 W/m2
02:19 57.4 °F /  14.1 °C 49.5 °F /  9.7 °C 29.9in /  1013.5hPa NW 2mph /  3.2km/h 4mph /  6.4km/h 75% 0in /  0.0mm 0 W/m2
02:24 57.4 °F /  14.1 °C 49.5 °F /  9.7 °C 29.9in /  1013.5hPa NNW 4.9mph /  7.9km/h 5mph /  8km/h 75% 0in /  0.0mm 0 W/m2
02:29 57.4 °F /  14.1 °C 49.1 °F /  9.5 °C 29.9in /  1013.5hPa West 2mph /  3.2km/h 5mph /  8km/h 74% 0in /  0.0mm 0 W/m2
02:34 57.4 °F /  14.1 °C 48.7 °F /  9.3 °C 29.9in /  1013.5hPa NNW 2.9mph /  4.7km/h 9mph /  14.5km/h 73% 0in /  0.0mm 0 W/m2
02:39 57.4 °F /  14.1 °C 49.1 °F /  9.5 °C 29.9in /  1013.5hPa NW 0.9mph /  1.4km/h 3mph /  4.8km/h 74% 0in /  0.0mm 0 W/m2
02:44 57.2 °F /  14 °C 48.9 °F /  9.4 °C 29.9in /  1013.5hPa North 2mph /  3.2km/h 8mph /  12.9km/h 74% 0in /  0.0mm 0 W/m2
02:49 57 °F /  13.9 °C 48.7 °F /  9.3 °C 29.9in /  1013.5hPa NNW 0.9mph /  1.4km/h 4mph /  6.4km/h 74% 0in /  0.0mm 0 W/m2
02:54 57 °F /  13.9 °C 49.1 °F /  9.5 °C 29.9in /  1013.5hPa WNW 0.9mph /  1.4km/h 2mph /  3.2km/h 75% 0in /  0.0mm 0 W/m2
02:59 56.8 °F /  13.8 °C 48.9 °F /  9.4 °C 29.9in /  1013.5hPa NNW 2.9mph /  4.7km/h 4mph /  6.4km/h 75% 0in /  0.0mm 0 W/m2
03:04 56.7 °F /  13.7 °C 49.1 °F /  9.5 °C 29.9in /  1013.5hPa SW 0.9mph /  1.4km/h 3mph /  4.8km/h 76% 0in /  0.0mm 0 W/m2
03:09 56.7 °F /  13.7 °C 49.1 °F /  9.5 °C 29.9in /  1013.5hPa West 2.9mph /  4.7km/h 3mph /  4.8km/h 76% 0in /  0.0mm 0 W/m2
03:14 56.5 °F /  13.6 °C 48.9 °F /  9.4 °C 29.9in /  1013.5hPa NW 2mph /  3.2km/h 3mph /  4.8km/h 76% 0in /  0.0mm 0 W/m2
03:19 56.3 °F /  13.5 °C 49.1 °F /  9.5 °C 29.9in /  1013.5hPa NW 2mph /  3.2km/h 3mph /  4.8km/h 77% 0in /  0.0mm 0 W/m2
03:24 56.1 °F /  13.4 °C 48.9 °F /  9.4 °C 29.9in /  1013.5hPa WNW 4mph /  6.4km/h 6mph /  9.7km/h 77% 0in /  0.0mm 0 W/m2
03:29 56.1 °F /  13.4 °C 48.9 °F /  9.4 °C 29.9in /  1013.5hPa West 4mph /  6.4km/h 4mph /  6.4km/h 77% 0in /  0.0mm 0 W/m2
03:34 56.1 °F /  13.4 °C 48.9 °F /  9.4 °C 29.9in /  1013.5hPa West 4mph /  6.4km/h 7mph /  11.3km/h 77% 0in /  0.0mm 0 W/m2
03:39 56.1 °F /  13.4 °C 49.3 °F /  9.6 °C 29.9in /  1013.5hPa NW 4mph /  6.4km/h 6mph /  9.7km/h 78% 0in /  0.0mm 0 W/m2
03:44 56.1 °F /  13.4 °C 49.3 °F /  9.6 °C 29.9in /  1013.5hPa West 2mph /  3.2km/h 3mph /  4.8km/h 78% 0in /  0.0mm 0 W/m2
03:49 55.9 °F /  13.3 °C 49.1 °F /  9.5 °C 29.9in /  1013.5hPa WNW 2mph /  3.2km/h 4mph /  6.4km/h 78% 0in /  0.0mm 0 W/m2
03:54 55.9 °F /  13.3 °C 49.5 °F /  9.7 °C 29.9in /  1013.5hPa NW 0.9mph /  1.4km/h 4mph /  6.4km/h 79% 0in /  0.0mm 0 W/m2
03:59 55.9 °F /  13.3 °C 49.5 °F /  9.7 °C 29.9in /  1013.5hPa North 0.9mph /  1.4km/h 6mph /  9.7km/h 79% 0in /  0.0mm 0 W/m2
04:04 55.9 °F /  13.3 °C 49.5 °F /  9.7 °C 29.9in /  1013.5hPa Calm   5mph /  8km/h 79% 0in /  0.0mm 0 W/m2
04:14 55.8 °F /  13.2 °C 49.3 °F /  9.6 °C 29.9in /  1013.5hPa WNW 4mph /  6.4km/h 5mph /  8km/h 79% 0in /  0.0mm 0 W/m2
04:19 55.8 °F /  13.2 °C 49.6 °F /  9.8 °C 29.9in /  1013.5hPa WSW 2mph /  3.2km/h 3mph /  4.8km/h 80% 0in /  0.0mm 0 W/m2
04:24 55.6 °F /  13.1 °C 49.5 °F /  9.7 °C 29.9in /  1013.5hPa Calm   8mph /  12.9km/h 80% 0in /  0.0mm 0 W/m2
04:29 55.6 °F /  13.1 °C 49.5 °F /  9.7 °C 29.9in /  1013.5hPa West 4mph /  6.4km/h 5mph /  8km/h 80% 0in /  0.0mm 0 W/m2
04:34 55.4 °F /  13 °C 49.3 °F /  9.6 °C 29.9in /  1013.5hPa NNW 2mph /  3.2km/h 4mph /  6.4km/h 80% 0in /  0.0mm 0 W/m2
04:39 55.2 °F /  12.9 °C 49.5 °F /  9.7 °C 29.9in /  1013.5hPa North 0.9mph /  1.4km/h 2mph /  3.2km/h 81% 0in /  0.0mm 0 W/m2
04:44 55 °F /  12.8 °C 49.3 °F /  9.6 °C 29.9in /  1013.5hPa NW 2mph /  3.2km/h 4mph /  6.4km/h 81% 0in /  0.0mm 0 W/m2
04:49 55 °F /  12.8 °C 49.6 °F /  9.8 °C 29.9in /  1013.5hPa NW 0.9mph /  1.4km/h 2mph /  3.2km/h 82% 0in /  0.0mm 0 W/m2
04:54 54.9 °F /  12.7 °C 49.5 °F /  9.7 °C 29.9in /  1013.5hPa Calm     82% 0in /  0.0mm 0 W/m2
04:59 54.7 °F /  12.6 °C 49.3 °F /  9.6 °C 29.9in /  1013.5hPa WNW 0.9mph /  1.4km/h 3mph /  4.8km/h 82% 0in /  0.0mm 0 W/m2
05:04 54.5 °F /  12.5 °C 49.1 °F /  9.5 °C 29.9in /  1013.5hPa WNW 0.9mph /  1.4km/h 4mph /  6.4km/h 82% 0in /  0.0mm 0 W/m2
05:09 54.3 °F /  12.4 °C 49.3 °F /  9.6 °C 29.9in /  1013.5hPa NNW 2mph /  3.2km/h 5mph /  8km/h 83% 0in /  0.0mm 0 W/m2
05:14 54.3 °F /  12.4 °C 49.3 °F /  9.6 °C 29.9in /  1013.5hPa North 0.9mph /  1.4km/h 2mph /  3.2km/h 83% 0in /  0.0mm 0 W/m2
05:19 54.3 °F /  12.4 °C 49.3 °F /  9.6 °C 29.9in /  1013.5hPa NW 0.9mph /  1.4km/h 2mph /  3.2km/h 83% 0in /  0.0mm 0 W/m2
05:24 54.3 °F /  12.4 °C 49.6 °F /  9.8 °C 29.9in /  1013.5hPa North 2mph /  3.2km/h 3mph /  4.8km/h 84% 0in /  0.0mm 0 W/m2
05:29 54.3 °F /  12.4 °C 49.3 °F /  9.6 °C 29.9in /  1013.5hPa WNW 0.9mph /  1.4km/h 3mph /  4.8km/h 83% 0in /  0.0mm 0 W/m2
05:34 54.1 °F /  12.3 °C 49.5 °F /  9.7 °C 29.9in /  1013.5hPa WNW 0.9mph /  1.4km/h 3mph /  4.8km/h 84% 0in /  0.0mm 0 W/m2
05:39 54.1 °F /  12.3 °C 49.5 °F /  9.7 °C 29.9in /  1013.5hPa NW 2mph /  3.2km/h 4mph /  6.4km/h 84% 0in /  0.0mm 5 W/m2
05:44 54 °F /  12.2 °C 49.3 °F /  9.6 °C 29.9in /  1013.5hPa WNW 2mph /  3.2km/h 6mph /  9.7km/h 84% 0in /  0.0mm 5 W/m2
05:49 54 °F /  12.2 °C 49.6 °F /  9.8 °C 29.9in /  1013.5hPa West 2mph /  3.2km/h 2mph /  3.2km/h 85% 0in /  0.0mm 5 W/m2
05:54 54 °F /  12.2 °C 49.6 °F /  9.8 °C 29.9in /  1013.9hPa NNW 0.9mph /  1.4km/h 2mph /  3.2km/h 85% 0in /  0.0mm 7 W/m2
05:59 54 °F /  12.2 °C 49.6 °F /  9.8 °C 29.9in /  1013.9hPa WNW 2.9mph /  4.7km/h 3mph /  4.8km/h 85% 0in /  0.0mm 9 W/m2
06:04 54 °F /  12.2 °C 49.6 °F /  9.8 °C 29.9in /  1013.9hPa SW 2mph /  3.2km/h 7mph /  11.3km/h 85% 0in /  0.0mm 14 W/m2
06:09 54.1 °F /  12.3 °C 49.8 °F /  9.9 °C 29.9in /  1013.9hPa Calm   1mph /  1.6km/h 85% 0in /  0.0mm 19 W/m2
06:14 54.1 °F /  12.3 °C 49.8 °F /  9.9 °C 29.9in /  1013.9hPa WNW 0.9mph /  1.4km/h 7mph /  11.3km/h 85% 0in /  0.0mm 21 W/m2
06:24 54.3 °F /  12.4 °C 49.6 °F /  9.8 °C 29.9in /  1013.9hPa West 2mph /  3.2km/h 3mph /  4.8km/h 84% 0in /  0.0mm 32 W/m2
06:29 54.3 °F /  12.4 °C 49.6 °F /  9.8 °C 29.9in /  1013.9hPa WNW 4.9mph /  7.9km/h 6mph /  9.7km/h 84% 0in /  0.0mm 39 W/m2
06:34 54.5 °F /  12.5 °C 49.8 °F /  9.9 °C 29.9in /  1013.9hPa WNW 0.9mph /  1.4km/h 4mph /  6.4km/h 84% 0in /  0.0mm 51 W/m2
06:39 54.5 °F /  12.5 °C 49.8 °F /  9.9 °C 29.9in /  1013.9hPa NW 2.9mph /  4.7km/h 3mph /  4.8km/h 84% 0in /  0.0mm 58 W/m2
06:44 54.7 °F /  12.6 °C 50 °F /  10 °C 29.9in /  1013.9hPa West 2.9mph /  4.7km/h 5mph /  8km/h 84% 0in /  0.0mm 60 W/m2
06:50 54.7 °F /  12.6 °C 50 °F /  10 °C 30in /  1014.2hPa WNW 0.9mph /  1.4km/h 3mph /  4.8km/h 84% 0in /  0.0mm 53 W/m2
06:55 54.7 °F /  12.6 °C 50 °F /  10 °C 30in /  1014.2hPa WNW 2mph /  3.2km/h 2mph /  3.2km/h 84% 0in /  0.0mm 51 W/m2
07:00 54.7 °F /  12.6 °C 50 °F /  10 °C 30in /  1014.2hPa NW 2mph /  3.2km/h 3mph /  4.8km/h 84% 0in /  0.0mm 63 W/m2
07:05 54.9 °F /  12.7 °C 50.2 °F /  10.1 °C 30in /  1014.2hPa NW 2mph /  3.2km/h 5mph /  8km/h 84% 0in /  0.0mm 76 W/m2
07:10 55 °F /  12.8 °C 50.4 °F /  10.2 °C 30in /  1014.2hPa NNE 2.9mph /  4.7km/h 4mph /  6.4km/h 84% 0in /  0.0mm 97 W/m2
07:15 55.2 °F /  12.9 °C 50.5 °F /  10.3 °C 30in /  1014.2hPa WNW 2mph /  3.2km/h 5mph /  8km/h 84% 0in /  0.0mm 114 W/m2
07:20 55.4 °F /  13 °C 50.4 °F /  10.2 °C 30in /  1014.2hPa NNW 0.9mph /  1.4km/h 6mph /  9.7km/h 83% 0in /  0.0mm 123 W/m2
07:25 55.6 °F /  13.1 °C 50.5 °F /  10.3 °C 30in /  1014.2hPa SSE 4.9mph /  7.9km/h 5mph /  8km/h 83% 0in /  0.0mm 123 W/m2
07:30 55.8 °F /  13.2 °C 50.7 °F /  10.4 °C 30in /  1014.2hPa WSW 4mph /  6.4km/h 4mph /  6.4km/h 83% 0in /  0.0mm 120 W/m2
07:35 56.1 °F /  13.4 °C 50.7 °F /  10.4 °C 30in /  1014.2hPa West 2.9mph /  4.7km/h 3mph /  4.8km/h 82% 0in /  0.0mm 142 W/m2
07:40 56.5 °F /  13.6 °C 50.7 °F /  10.4 °C 30in /  1014.2hPa NNW 4mph /  6.4km/h 4mph /  6.4km/h 81% 0in /  0.0mm 204 W/m2
07:45 56.5 °F /  13.6 °C 50.7 °F /  10.4 °C 30in /  1014.2hPa NNE 0.9mph /  1.4km/h 3mph /  4.8km/h 81% 0in /  0.0mm 176 W/m2
07:50 56.5 °F /  13.6 °C 50.7 °F /  10.4 °C 30in /  1014.6hPa East 0.9mph /  1.4km/h 4mph /  6.4km/h 81% 0in /  0.0mm 125 W/m2
07:55 56.7 °F /  13.7 °C 50.9 °F /  10.5 °C 30in /  1014.6hPa West 0.9mph /  1.4km/h 3mph /  4.8km/h 81% 0in /  0.0mm 104 W/m2
08:00 56.7 °F /  13.7 °C 50.9 °F /  10.5 °C 30in /  1014.6hPa ENE 2mph /  3.2km/h 2mph /  3.2km/h 81% 0in /  0.0mm 118 W/m2
08:05 56.5 °F /  13.6 °C 50.7 °F /  10.4 °C 30in /  1014.6hPa Calm   4mph /  6.4km/h 81% 0in /  0.0mm 121 W/m2
08:10 56.7 °F /  13.7 °C 51.3 °F /  10.7 °C 30in /  1014.6hPa NW 2mph /  3.2km/h 3mph /  4.8km/h 82% 0in /  0.0mm 158 W/m2
08:15 56.7 °F /  13.7 °C 51.3 °F /  10.7 °C 30in /  1014.6hPa WNW 0.9mph /  1.4km/h 4mph /  6.4km/h 82% 0in /  0.0mm 162 W/m2
08:20 56.8 °F /  13.8 °C 51.4 °F /  10.8 °C 30in /  1014.6hPa Calm   9mph /  14.5km/h 82% 0in /  0.0mm 172 W/m2
08:25 56.8 °F /  13.8 °C 51.4 °F /  10.8 °C 30in /  1014.6hPa North 2mph /  3.2km/h 6mph /  9.7km/h 82% 0in /  0.0mm 169 W/m2
08:30 56.8 °F /  13.8 °C 51.1 °F /  10.6 °C 30in /  1014.6hPa ENE 2mph /  3.2km/h 9mph /  14.5km/h 81% 0in /  0.0mm 183 W/m2
08:35 57.2 °F /  14 °C 51.4 °F /  10.8 °C 30in /  1014.6hPa WNW 0.9mph /  1.4km/h 4mph /  6.4km/h 81% 0in /  0.0mm 330 W/m2
08:45 57.9 °F /  14.4 °C 51.8 °F /  11 °C 30in /  1014.6hPa NNW 6mph /  9.7km/h 7mph /  11.3km/h 80% 0in /  0.0mm 338 W/m2
08:51 58.3 °F /  14.6 °C 52.2 °F /  11.2 °C 30in /  1014.6hPa WNW 2.9mph /  4.7km/h 4mph /  6.4km/h 80% 0in /  0.0mm 274 W/m2
08:56 58.5 °F /  14.7 °C 52 °F /  11.1 °C 30in /  1014.6hPa SSW 0.9mph /  1.4km/h 8mph /  12.9km/h 79% 0in /  0.0mm 272 W/m2
09:01 58.6 °F /  14.8 °C 52.2 °F /  11.2 °C 30in /  1014.6hPa NNE 2mph /  3.2km/h 5mph /  8km/h 79% 0in /  0.0mm 575 W/m2
09:06 59.2 °F /  15.1 °C 52.3 °F /  11.3 °C 30in /  1014.6hPa ESE 0.9mph /  1.4km/h 8mph /  12.9km/h 78% 0in /  0.0mm 526 W/m2
09:11 59.5 °F /  15.3 °C 52.3 °F /  11.3 °C 30in /  1014.6hPa East 4mph /  6.4km/h 7mph /  11.3km/h 77% 0in /  0.0mm 325 W/m2
09:16 59.5 °F /  15.3 °C 52 °F /  11.1 °C 30in /  1014.6hPa East 0.9mph /  1.4km/h 1mph /  1.6km/h 76% 0in /  0.0mm 234 W/m2
09:21 59.4 °F /  15.2 °C 52.2 °F /  11.2 °C 30in /  1014.9hPa ENE 4mph /  6.4km/h 7mph /  11.3km/h 77% 0in /  0.0mm 232 W/m2
09:26 59.4 °F /  15.2 °C 52.2 °F /  11.2 °C 30in /  1014.9hPa East 0.9mph /  1.4km/h 7mph /  11.3km/h 77% 0in /  0.0mm 213 W/m2
09:31 59.2 °F /  15.1 °C 52 °F /  11.1 °C 30in /  1014.9hPa East 2mph /  3.2km/h 5mph /  8km/h 77% 0in /  0.0mm 207 W/m2
09:36 59.2 °F /  15.1 °C 52.3 °F /  11.3 °C 30in /  1014.9hPa WNW 0.9mph /  1.4km/h 4mph /  6.4km/h 78% 0in /  0.0mm 232 W/m2
09:41 59.2 °F /  15.1 °C 52.3 °F /  11.3 °C 30in /  1014.9hPa SW 0.9mph /  1.4km/h 6mph /  9.7km/h 78% 0in /  0.0mm 325 W/m2
09:46 59.2 °F /  15.1 °C 52.3 °F /  11.3 °C 30in /  1014.9hPa North 2mph /  3.2km/h 4mph /  6.4km/h 78% 0in /  0.0mm 403 W/m2
09:51 59.4 °F /  15.2 °C 52.5 °F /  11.4 °C 30in /  1014.9hPa NE 6mph /  9.7km/h 6mph /  9.7km/h 78% 0in /  0.0mm 432 W/m2
09:56 59.5 °F /  15.3 °C 52.3 °F /  11.3 °C 30in /  1014.9hPa NNW 2.9mph /  4.7km/h 5mph /  8km/h 77% 0in /  0.0mm 311 W/m2
10:01 59.5 °F /  15.3 °C 52.3 °F /  11.3 °C 30in /  1014.9hPa NNE 4mph /  6.4km/h 6mph /  9.7km/h 77% 0in /  0.0mm 278 W/m2
10:06 59.5 °F /  15.3 °C 52.3 °F /  11.3 °C 30in /  1014.9hPa NW 2.9mph /  4.7km/h 4mph /  6.4km/h 77% 0in /  0.0mm 399 W/m2
10:11 60.1 °F /  15.6 °C 53.2 °F /  11.8 °C 30in /  1014.9hPa SW 2mph /  3.2km/h 6mph /  9.7km/h 78% 0in /  0.0mm 381 W/m2
10:16 60.6 °F /  15.9 °C 53.1 °F /  11.7 °C 30in /  1014.9hPa East 0.9mph /  1.4km/h 4mph /  6.4km/h 76% 0in /  0.0mm 596 W/m2
10:21 61 °F /  16.1 °C 53.4 °F /  11.9 °C 30in /  1014.9hPa NNE 0.9mph /  1.4km/h 4mph /  6.4km/h 76% 0in /  0.0mm 371 W/m2
10:26 61 °F /  16.1 °C 53.1 °F /  11.7 °C 30in /  1014.9hPa NNE 4mph /  6.4km/h 6mph /  9.7km/h 75% 0in /  0.0mm 373 W/m2
10:31 60.8 °F /  16 °C 53.2 °F /  11.8 °C 30in /  1014.9hPa Calm   4mph /  6.4km/h 76% 0in /  0.0mm 373 W/m2
10:36 61.2 °F /  16.2 °C 53.2 °F /  11.8 °C 30in /  1014.9hPa WNW 2mph /  3.2km/h 5mph /  8km/h 75% 0in /  0.0mm 793 W/m2
10:41 61.5 °F /  16.4 °C 53.6 °F /  12 °C 30in /  1014.9hPa SW 2mph /  3.2km/h 4mph /  6.4km/h 75% 0in /  0.0mm 475 W/m2
10:46 62.2 °F /  16.8 °C 53.8 °F /  12.1 °C 30in /  1014.6hPa West 2mph /  3.2km/h 3mph /  4.8km/h 74% 0in /  0.0mm 455 W/m2
10:51 62.8 °F /  17.1 °C 54 °F /  12.2 °C 30in /  1014.6hPa NW 2.9mph /  4.7km/h 8mph /  12.9km/h 73% 0in /  0.0mm 761 W/m2
10:56 63.1 °F /  17.3 °C 54 °F /  12.2 °C 30in /  1014.6hPa WNW 4mph /  6.4km/h 4mph /  6.4km/h 72% 0in /  0.0mm 926 W/m2
11:01 63.7 °F /  17.6 °C 54.1 °F /  12.3 °C 30in /  1014.6hPa SSE 2.9mph /  4.7km/h 5mph /  8km/h 71% 0in /  0.0mm 761 W/m2
11:06 64 °F /  17.8 °C 54.1 °F /  12.3 °C 30in /  1014.6hPa SW 2mph /  3.2km/h 3mph /  4.8km/h 70% 0in /  0.0mm 352 W/m2
11:16 63.7 °F /  17.6 °C 54.1 °F /  12.3 °C 30in /  1014.6hPa East 2mph /  3.2km/h 4mph /  6.4km/h 71% 0in /  0.0mm 234 W/m2
11:21 63.7 °F /  17.6 °C 53.8 °F /  12.1 °C 30in /  1014.6hPa NNE 2mph /  3.2km/h 6mph /  9.7km/h 70% 0in /  0.0mm 257 W/m2
11:26 63.3 °F /  17.4 °C 53.4 °F /  11.9 °C 30in /  1014.6hPa NNE 2mph /  3.2km/h 7mph /  11.3km/h 70% 0in /  0.0mm 318 W/m2
11:31 63.3 °F /  17.4 °C 53.1 °F /  11.7 °C 30in /  1014.6hPa ENE 2mph /  3.2km/h 4mph /  6.4km/h 69% 0in /  0.0mm 526 W/m2
11:36 63.7 °F /  17.6 °C 53.8 °F /  12.1 °C 30in /  1014.6hPa NE 2.9mph /  4.7km/h 4mph /  6.4km/h 70% 0in /  0.0mm 552 W/m2
11:41 63.9 °F /  17.7 °C 54 °F /  12.2 °C 30in /  1014.6hPa NNW 2.9mph /  4.7km/h 4mph /  6.4km/h 70% 0in /  0.0mm 805 W/m2
11:46 64.4 °F /  18 °C 54 °F /  12.2 °C 30in /  1014.9hPa WNW 0.9mph /  1.4km/h 5mph /  8km/h 69% 0in /  0.0mm 889 W/m2
11:51 64.9 °F /  18.3 °C 54.1 °F /  12.3 °C 30in /  1014.6hPa WNW 0.9mph /  1.4km/h 6mph /  9.7km/h 68% 0in /  0.0mm 816 W/m2
11:56 64.6 °F /  18.1 °C 53.4 °F /  11.9 °C 30in /  1014.9hPa NNW 2.9mph /  4.7km/h 9mph /  14.5km/h 67% 0in /  0.0mm 388 W/m2
12:01 63.7 °F /  17.6 °C 52.9 °F /  11.6 °C 30in /  1014.9hPa NE 0.9mph /  1.4km/h 3mph /  4.8km/h 68% 0in /  0.0mm 345 W/m2
12:11 63.3 °F /  17.4 °C 53.4 °F /  11.9 °C 30in /  1014.9hPa ESE 2.9mph /  4.7km/h 5mph /  8km/h 70% 0in /  0.0mm 432 W/m2
12:16 63.3 °F /  17.4 °C 53.1 °F /  11.7 °C 30in /  1014.9hPa WNW 2mph /  3.2km/h 4mph /  6.4km/h 69% 0in /  0.0mm 360 W/m2
12:21 63.3 °F /  17.4 °C 53.4 °F /  11.9 °C 30in /  1014.9hPa NW 0.9mph /  1.4km/h 2mph /  3.2km/h 70% 0in /  0.0mm 320 W/m2
12:26 63.3 °F /  17.4 °C 53.4 °F /  11.9 °C 30in /  1014.9hPa Calm   3mph /  4.8km/h 70% 0in /  0.0mm 313 W/m2
12:31 63.3 °F /  17.4 °C 53.4 °F /  11.9 °C 30in /  1014.9hPa NNW 2mph /  3.2km/h 3mph /  4.8km/h 70% 0in /  0.0mm 323 W/m2
12:36 63.7 °F /  17.6 °C 53.8 °F /  12.1 °C 30in /  1014.6hPa WNW 2mph /  3.2km/h 4mph /  6.4km/h 70% 0in /  0.0mm 315 W/m2
12:41 63.7 °F /  17.6 °C 52.9 °F /  11.6 °C 30in /  1014.6hPa Calm   5mph /  8km/h 68% 0in /  0.0mm 302 W/m2
12:46 63.7 °F /  17.6 °C 53.2 °F /  11.8 °C 30in /  1014.6hPa ENE 2mph /  3.2km/h 3mph /  4.8km/h 69% 0in /  0.0mm 318 W/m2
12:51 64 °F /  17.8 °C 53.6 °F /  12 °C 30in /  1014.6hPa ENE 2mph /  3.2km/h 5mph /  8km/h 69% 0in /  0.0mm 438 W/m2
12:56 64.8 °F /  18.2 °C 54 °F /  12.2 °C 30in /  1014.6hPa NNW 0.9mph /  1.4km/h 4mph /  6.4km/h 68% 0in /  0.0mm 608 W/m2
13:01 65.1 °F /  18.4 °C 54 °F /  12.2 °C 30in /  1014.6hPa NE 2mph /  3.2km/h 4mph /  6.4km/h 67% 0in /  0.0mm 599 W/m2
13:06 65.8 °F /  18.8 °C 53.2 °F /  11.8 °C 30in /  1014.6hPa East 2.9mph /  4.7km/h 4mph /  6.4km/h 64% 0in /  0.0mm 519 W/m2
13:12 65.8 °F /  18.8 °C 52.5 °F /  11.4 °C 30in /  1014.6hPa WSW 2.9mph /  4.7km/h 3mph /  4.8km/h 62% 0in /  0.0mm 661 W/m2
13:17 66.2 °F /  19 °C 53.2 °F /  11.8 °C 30in /  1014.6hPa East 4mph /  6.4km/h 9mph /  14.5km/h 63% 0in /  0.0mm 540 W/m2
13:22 66.6 °F /  19.2 °C 53.6 °F /  12 °C 30in /  1014.6hPa South 2.9mph /  4.7km/h 6mph /  9.7km/h 63% 0in /  0.0mm 499 W/m2
13:27 66.6 °F /  19.2 °C 52.7 °F /  11.5 °C 30in /  1014.6hPa ESE 2mph /  3.2km/h 9mph /  14.5km/h 61% 0in /  0.0mm 445 W/m2
13:32 66.6 °F /  19.2 °C 53.1 °F /  11.7 °C 30in /  1014.6hPa ESE 6mph /  9.7km/h 7mph /  11.3km/h 62% 0in /  0.0mm 364 W/m2
13:37 66.2 °F /  19 °C 52.9 °F /  11.6 °C 30in /  1014.2hPa West 8.1mph /  13km/h 10mph /  16.1km/h 62% 0in /  0.0mm 306 W/m2
13:42 65.8 °F /  18.8 °C 52.9 °F /  11.6 °C 30in /  1014.2hPa WNW 2mph /  3.2km/h 6mph /  9.7km/h 63% 0in /  0.0mm 279 W/m2
13:47 65.8 °F /  18.8 °C 52.5 °F /  11.4 °C 30in /  1014.2hPa ENE 2mph /  3.2km/h 8mph /  12.9km/h 62% 0in /  0.0mm 258 W/m2
13:52 66 °F /  18.9 °C 52.7 °F /  11.5 °C 30in /  1014.2hPa SE 0.9mph /  1.4km/h 4mph /  6.4km/h 62% 0in /  0.0mm 253 W/m2
13:57 66 °F /  18.9 °C 52.7 °F /  11.5 °C 30in /  1014.2hPa ESE 0.9mph /  1.4km/h 3mph /  4.8km/h 62% 0in /  0.0mm 243 W/m2
14:02 65.8 °F /  18.8 °C 52 °F /  11.1 °C 30in /  1014.2hPa WNW 4mph /  6.4km/h 4mph /  6.4km/h 61% 0in /  0.0mm 214 W/m2
14:07 65.7 °F /  18.7 °C 51.4 °F /  10.8 °C 30in /  1014.2hPa WNW 0.9mph /  1.4km/h 4mph /  6.4km/h 60% 0in /  0.0mm 209 W/m2
14:12 65.8 °F /  18.8 °C 52.5 °F /  11.4 °C 30in /  1014.2hPa Calm   2mph /  3.2km/h 62% 0in /  0.0mm 207 W/m2
14:17 65.8 °F /  18.8 °C 52.5 °F /  11.4 °C 30in /  1014.2hPa WNW 0.9mph /  1.4km/h 2mph /  3.2km/h 62% 0in /  0.0mm 214 W/m2
14:22 66 °F /  18.9 °C 52.7 °F /  11.5 °C 30in /  1014.2hPa NE 0.9mph /  1.4km/h 4mph /  6.4km/h 62% 0in /  0.0mm 241 W/m2
14:27 66 °F /  18.9 °C 52.2 °F /  11.2 °C 30in /  1014.2hPa ENE 2mph /  3.2km/h 4mph /  6.4km/h 61% 0in /  0.0mm 320 W/m2
14:32 66.2 °F /  19 °C 52.3 °F /  11.3 °C 29.9in /  1013.9hPa NW 2mph /  3.2km/h 6mph /  9.7km/h 61% 0in /  0.0mm 350 W/m2
14:37 66.4 °F /  19.1 °C 52.5 °F /  11.4 °C 30in /  1014.2hPa NNE 0.9mph /  1.4km/h 3mph /  4.8km/h 61% 0in /  0.0mm 362 W/m2
14:42 66.7 °F /  19.3 °C 52.9 °F /  11.6 °C 29.9in /  1013.9hPa Calm   7mph /  11.3km/h 61% 0in /  0.0mm 380 W/m2
14:47 66.9 °F /  19.4 °C 53.1 °F /  11.7 °C 29.9in /  1013.9hPa WNW 2mph /  3.2km/h 2mph /  3.2km/h 61% 0in /  0.0mm 371 W/m2
14:52 67.1 °F /  19.5 °C 51.8 °F /  11 °C 29.9in /  1013.9hPa SW 2mph /  3.2km/h 5mph /  8km/h 58% 0in /  0.0mm 316 W/m2
14:57 66.9 °F /  19.4 °C 50.7 °F /  10.4 °C 29.9in /  1013.9hPa ESE 2mph /  3.2km/h 2mph /  3.2km/h 56% 0in /  0.0mm 304 W/m2
15:02 66.7 °F /  19.3 °C 51.1 °F /  10.6 °C 29.9in /  1013.9hPa NNE 0.9mph /  1.4km/h 6mph /  9.7km/h 57% 0in /  0.0mm 315 W/m2
15:07 66.9 °F /  19.4 °C 51.3 °F /  10.7 °C 29.9in /  1013.9hPa ENE 0.9mph /  1.4km/h 3mph /  4.8km/h 57% 0in /  0.0mm 339 W/m2
15:12 67.3 °F /  19.6 °C 52 °F /  11.1 °C 29.9in /  1013.9hPa East 0.9mph /  1.4km/h 2mph /  3.2km/h 58% 0in /  0.0mm 343 W/m2
15:17 67.5 °F /  19.7 °C 51.6 °F /  10.9 °C 29.9in /  1013.9hPa ENE 0.9mph /  1.4km/h 7mph /  11.3km/h 57% 0in /  0.0mm 325 W/m2
15:22 67.6 °F /  19.8 °C 52.9 °F /  11.6 °C 29.9in /  1013.9hPa NW 2mph /  3.2km/h 6mph /  9.7km/h 59% 0in /  0.0mm 327 W/m2
15:27 67.8 °F /  19.9 °C 52 °F /  11.1 °C 29.9in /  1013.9hPa North 2mph /  3.2km/h 4mph /  6.4km/h 57% 0in /  0.0mm 322 W/m2
15:32 67.8 °F /  19.9 °C 52 °F /  11.1 °C 29.9in /  1013.9hPa NNE 0.9mph /  1.4km/h 6mph /  9.7km/h 57% 0in /  0.0mm 350 W/m2
15:37 67.6 °F /  19.8 °C 51.4 °F /  10.8 °C 29.9in /  1013.9hPa NNW 2.9mph /  4.7km/h 4mph /  6.4km/h 56% 0in /  0.0mm 278 W/m2
15:42 67.6 °F /  19.8 °C 51.4 °F /  10.8 °C 29.9in /  1013.9hPa NE 0.9mph /  1.4km/h 2mph /  3.2km/h 56% 0in /  0.0mm 109 W/m2
15:47 67.1 °F /  19.5 °C 51.4 °F /  10.8 °C 30in /  1014.2hPa ESE 2.9mph /  4.7km/h 7mph /  11.3km/h 57% 0in /  0.0mm 37 W/m2
15:52 65.8 °F /  18.8 °C 52 °F /  11.1 °C 30in /  1014.2hPa ESE 2.9mph /  4.7km/h 5mph /  8km/h 61% 0in /  0.0mm 33 W/m2
15:57 64.2 °F /  17.9 °C 54.3 °F /  12.4 °C 30in /  1014.6hPa NE 2.9mph /  4.7km/h 10mph /  16.1km/h 70% 0in /  0.0mm 47 W/m2
16:02 62.2 °F /  16.8 °C 53.8 °F /  12.1 °C 30in /  1014.6hPa East 2mph /  3.2km/h 4mph /  6.4km/h 74% 0.02in /  0.5mm 70 W/m2
16:07 61.2 °F /  16.2 °C 54.7 °F /  12.6 °C 30in /  1014.6hPa ESE 0.9mph /  1.4km/h 3mph /  4.8km/h 79% 0.03in /  0.8mm 84 W/m2
16:12 60.1 °F /  15.6 °C 54.3 °F /  12.4 °C 30in /  1014.6hPa SE 2.9mph /  4.7km/h 3mph /  4.8km/h 81% 0.04in /  1.0mm 107 W/m2
16:17 59.4 °F /  15.2 °C 54.1 °F /  12.3 °C 30in /  1014.6hPa East 2mph /  3.2km/h 6mph /  9.7km/h 83% 0.04in /  1.0mm 130 W/m2
16:22 59 °F /  15 °C 54.5 °F /  12.5 °C 30in /  1014.6hPa Calm   3mph /  4.8km/h 85% 0.04in /  1.0mm 151 W/m2
16:27 59 °F /  15 °C 55.2 °F /  12.9 °C 30in /  1014.2hPa SW 0.9mph /  1.4km/h 6mph /  9.7km/h 87% 0.04in /  1.0mm 162 W/m2
16:32 58.8 °F /  14.9 °C 55 °F /  12.8 °C 30in /  1014.2hPa SE 2mph /  3.2km/h 3mph /  4.8km/h 87% 0.04in /  1.0mm 171 W/m2
16:37 59.2 °F /  15.1 °C 55.4 °F /  13 °C 30in /  1014.2hPa Calm   4mph /  6.4km/h 87% 0.05in /  1.3mm 181 W/m2
16:42 59.2 °F /  15.1 °C 55.4 °F /  13 °C 30in /  1014.2hPa ENE 0.9mph /  1.4km/h 1mph /  1.6km/h 87% 0.05in /  1.3mm 200 W/m2
16:47 59.4 °F /  15.2 °C 55.2 °F /  12.9 °C 30in /  1014.2hPa Calm   3mph /  4.8km/h 86% 0.05in /  1.3mm 229 W/m2
16:57 59.7 °F /  15.4 °C 55.6 °F /  13.1 °C 30in /  1014.2hPa North 0.9mph /  1.4km/h 1mph /  1.6km/h 86% 0.05in /  1.3mm 155 W/m2
17:02 60.1 °F /  15.6 °C 55.6 °F /  13.1 °C 30in /  1014.2hPa East 2mph /  3.2km/h 2mph /  3.2km/h 85% 0.03in /  0.8mm 137 W/m2
17:07 60.4 °F /  15.8 °C 56.5 °F /  13.6 °C 30in /  1014.2hPa Calm     87% 0.02in /  0.5mm 135 W/m2
17:12 60.6 °F /  15.9 °C 57 °F /  13.9 °C 30in /  1014.2hPa Calm   2mph /  3.2km/h 88% 0.01in /  0.2mm 132 W/m2
17:17 60.3 °F /  15.7 °C 56.3 °F /  13.5 °C 30in /  1014.2hPa SW 0.9mph /  1.4km/h 2mph /  3.2km/h 87% 0.01in /  0.2mm 137 W/m2
17:23 59.7 °F /  15.4 °C 55.8 °F /  13.2 °C 29.9in /  1013.9hPa SW 2mph /  3.2km/h 2mph /  3.2km/h 87% 0.01in /  0.2mm 153 W/m2
17:28 59.5 °F /  15.3 °C 55.9 °F /  13.3 °C 29.9in /  1013.9hPa SW 0.9mph /  1.4km/h 2mph /  3.2km/h 88% 0.01in /  0.2mm 179 W/m2
17:33 59.5 °F /  15.3 °C 56.3 °F /  13.5 °C 29.9in /  1013.9hPa SW 0.9mph /  1.4km/h 1mph /  1.6km/h 89% 0in /  0.0mm 188 W/m2
17:38 59.5 °F /  15.3 °C 56.3 °F /  13.5 °C 29.9in /  1013.9hPa Calm     89% 0in /  0.0mm 193 W/m2
17:43 60.1 °F /  15.6 °C 56.8 °F /  13.8 °C 29.9in /  1013.9hPa Calm     89% 0in /  0.0mm 202 W/m2
17:48 60.4 °F /  15.8 °C 57.6 °F /  14.2 °C 29.9in /  1013.9hPa Calm     90% 0in /  0.0mm 204 W/m2
17:53 60.6 °F /  15.9 °C 57 °F /  13.9 °C 29.9in /  1013.9hPa WSW 2mph /  3.2km/h 2mph /  3.2km/h 88% 0in /  0.0mm 188 W/m2
17:58 61.2 °F /  16.2 °C 56.7 °F /  13.7 °C 30in /  1014.2hPa Calm   1mph /  1.6km/h 85% 0in /  0.0mm 185 W/m2
18:03 61.3 °F /  16.3 °C 57.2 °F /  14 °C 29.9in /  1013.9hPa Calm   1mph /  1.6km/h 86% 0in /  0.0mm 179 W/m2
18:08 61.9 °F /  16.6 °C 57.6 °F /  14.2 °C 29.9in /  1013.9hPa Calm     86% 0in /  0.0mm 207 W/m2
18:13 61.9 °F /  16.6 °C 57 °F /  13.9 °C 29.9in /  1013.9hPa Calm   2mph /  3.2km/h 84% 0in /  0.0mm 230 W/m2
18:18 62.2 °F /  16.8 °C 55.9 °F /  13.3 °C 29.9in /  1013.9hPa Calm   1mph /  1.6km/h 80% 0in /  0.0mm 285 W/m2
18:23 62.4 °F /  16.9 °C 55.8 °F /  13.2 °C 29.9in /  1013.9hPa Calm   1mph /  1.6km/h 79% 0in /  0.0mm 244 W/m2
18:28 62.8 °F /  17.1 °C 55.8 °F /  13.2 °C 29.9in /  1013.9hPa WNW 0.9mph /  1.4km/h 2mph /  3.2km/h 78% 0in /  0.0mm 200 W/m2
18:33 62.6 °F /  17 °C 55.6 °F /  13.1 °C 30in /  1014.2hPa WSW 2mph /  3.2km/h 2mph /  3.2km/h 78% 0in /  0.0mm 214 W/m2
18:38 62.4 °F /  16.9 °C 55 °F /  12.8 °C 30in /  1014.2hPa Calm   2mph /  3.2km/h 77% 0in /  0.0mm 229 W/m2
18:43 62.8 °F /  17.1 °C 56.5 °F /  13.6 °C 30in /  1014.2hPa WSW 0.9mph /  1.4km/h 1mph /  1.6km/h 80% 0in /  0.0mm 230 W/m2
18:49 62.8 °F /  17.1 °C 54 °F /  12.2 °C 30in /  1014.2hPa Calm   1mph /  1.6km/h 73% 0in /  0.0mm 214 W/m2
18:54 63.1 °F /  17.3 °C 55.8 °F /  13.2 °C 29.9in /  1013.9hPa NNW 0.9mph /  1.4km/h 3mph /  4.8km/h 77% 0in /  0.0mm 232 W/m2
18:59 63.3 °F /  17.4 °C 54.1 °F /  12.3 °C 29.9in /  1013.9hPa NW 0.9mph /  1.4km/h 1mph /  1.6km/h 72% 0in /  0.0mm 127 W/m2
19:04 63.7 °F /  17.6 °C 55.6 °F /  13.1 °C 29.9in /  1013.9hPa Calm   1mph /  1.6km/h 75% 0in /  0.0mm 93 W/m2
19:09 63.5 °F /  17.5 °C 56.1 °F /  13.4 °C 29.9in /  1013.9hPa West 0.9mph /  1.4km/h 2mph /  3.2km/h 77% 0in /  0.0mm 97 W/m2
19:14 63.1 °F /  17.3 °C 55.8 °F /  13.2 °C 29.9in /  1013.9hPa Calm   1mph /  1.6km/h 77% 0in /  0.0mm 111 W/m2
19:19 63 °F /  17.2 °C 57.4 °F /  14.1 °C 29.9in /  1013.9hPa Calm   1mph /  1.6km/h 82% 0in /  0.0mm 116 W/m2
19:24 62.8 °F /  17.1 °C 57.2 °F /  14 °C 29.9in /  1013.9hPa SE 2mph /  3.2km/h 3mph /  4.8km/h 82% 0in /  0.0mm 100 W/m2
19:29 62.8 °F /  17.1 °C 57.6 °F /  14.2 °C 29.9in /  1013.9hPa Calm   1mph /  1.6km/h 83% 0in /  0.0mm 70 W/m2
19:34 62.4 °F /  16.9 °C 57.2 °F /  14 °C 29.9in /  1013.9hPa SE 0.9mph /  1.4km/h 2mph /  3.2km/h 83% 0in /  0.0mm 69 W/m2
19:39 62.1 °F /  16.7 °C 56.8 °F /  13.8 °C 30in /  1014.2hPa Calm   1mph /  1.6km/h 83% 0in /  0.0mm 65 W/m2
19:44 61.9 °F /  16.6 °C 57 °F /  13.9 °C 30in /  1014.2hPa Calm   2mph /  3.2km/h 84% 0in /  0.0mm 42 W/m2
19:49 61.5 °F /  16.4 °C 55.6 °F /  13.1 °C 30in /  1014.2hPa NW 2.9mph /  4.7km/h 3mph /  4.8km/h 81% 0in /  0.0mm 21 W/m2
19:54 61.7 °F /  16.5 °C 54.9 °F /  12.7 °C 30in /  1014.2hPa SW 0.9mph /  1.4km/h 3mph /  4.8km/h 78% 0in /  0.0mm 12 W/m2
19:59 62.1 °F /  16.7 °C 54.7 °F /  12.6 °C 30in /  1014.2hPa NNW 0.9mph /  1.4km/h 5mph /  8km/h 77% 0in /  0.0mm 12 W/m2
20:04 62.1 °F /  16.7 °C 54.7 °F /  12.6 °C 30in /  1014.6hPa SSW 2mph /  3.2km/h 2mph /  3.2km/h 77% 0in /  0.0mm 16 W/m2
20:09 62.1 °F /  16.7 °C 55 °F /  12.8 °C 30in /  1014.6hPa North 0.9mph /  1.4km/h 4mph /  6.4km/h 78% 0in /  0.0mm 25 W/m2
20:14 62.1 °F /  16.7 °C 55 °F /  12.8 °C 30in /  1014.6hPa NNE 0.9mph /  1.4km/h 3mph /  4.8km/h 78% 0in /  0.0mm 33 W/m2
20:19 61.9 °F /  16.6 °C 53.1 °F /  11.7 °C 30in /  1014.6hPa North 0.9mph /  1.4km/h 3mph /  4.8km/h 73% 0in /  0.0mm 33 W/m2
20:24 61.7 °F /  16.5 °C 52.2 °F /  11.2 °C 30in /  1014.6hPa SSE 0.9mph /  1.4km/h 3mph /  4.8km/h 71% 0in /  0.0mm 30 W/m2
20:29 61.5 °F /  16.4 °C 52 °F /  11.1 °C 30in /  1014.6hPa NNE 2mph /  3.2km/h 5mph /  8km/h 71% 0in /  0.0mm 26 W/m2
20:34 61.3 °F /  16.3 °C 52.2 °F /  11.2 °C 30in /  1014.6hPa NW 4.9mph /  7.9km/h 8mph /  12.9km/h 72% 0in /  0.0mm 25 W/m2
20:39 61 °F /  16.1 °C 52 °F /  11.1 °C 30in /  1014.9hPa NW 4mph /  6.4km/h 9mph /  14.5km/h 72% 0in /  0.0mm 21 W/m2
20:44 60.8 °F /  16 °C 52.2 °F /  11.2 °C 30in /  1014.6hPa WSW 2.9mph /  4.7km/h 4mph /  6.4km/h 73% 0in /  0.0mm 18 W/m2
20:49 60.4 °F /  15.8 °C 51.8 °F /  11 °C 30in /  1014.9hPa WNW 9mph /  14.5km/h 9mph /  14.5km/h 73% 0in /  0.0mm 12 W/m2
20:54 60.3 °F /  15.7 °C 52 °F /  11.1 °C 30in /  1014.9hPa NE 0.9mph /  1.4km/h 5mph /  8km/h 74% 0in /  0.0mm 9 W/m2
20:59 60.3 °F /  15.7 °C 52.3 °F /  11.3 °C 30in /  1014.9hPa NE 0.9mph /  1.4km/h 6mph /  9.7km/h 75% 0in /  0.0mm 7 W/m2
21:04 60.1 °F /  15.6 °C 52.2 °F /  11.2 °C 30in /  1014.9hPa North 2.9mph /  4.7km/h 6mph /  9.7km/h 75% 0in /  0.0mm 5 W/m2
21:09 59.7 °F /  15.4 °C 52.2 °F /  11.2 °C 30in /  1014.9hPa NNW 2mph /  3.2km/h 6mph /  9.7km/h 76% 0in /  0.0mm 5 W/m2
21:14 59.5 °F /  15.3 °C 52.3 °F /  11.3 °C 30in /  1014.9hPa West 6mph /  9.7km/h 9mph /  14.5km/h 77% 0in /  0.0mm 0 W/m2
21:19 59.4 °F /  15.2 °C 52.2 °F /  11.2 °C 30in /  1014.9hPa NNW 2mph /  3.2km/h 5mph /  8km/h 77% 0in /  0.0mm 0 W/m2
21:24 59.2 °F /  15.1 °C 52.3 °F /  11.3 °C 30in /  1014.9hPa NW 2.9mph /  4.7km/h 6mph /  9.7km/h 78% 0in /  0.0mm 0 W/m2
21:29 59 °F /  15 °C 52.5 °F /  11.4 °C 30in /  1014.9hPa WNW 2mph /  3.2km/h 2mph /  3.2km/h 79% 0in /  0.0mm 0 W/m2
21:34 58.8 °F /  14.9 °C 52.7 °F /  11.5 °C 30in /  1015.2hPa NW 2.9mph /  4.7km/h 6mph /  9.7km/h 80% 0in /  0.0mm 0 W/m2
21:39 58.6 °F /  14.8 °C 52.9 °F /  11.6 °C 30in /  1015.2hPa West 0.9mph /  1.4km/h 6mph /  9.7km/h 81% 0in /  0.0mm 0 W/m2
21:44 58.6 °F /  14.8 °C 52.9 °F /  11.6 °C 30in /  1015.2hPa West 2.9mph /  4.7km/h 4mph /  6.4km/h 81% 0in /  0.0mm 0 W/m2
21:49 58.6 °F /  14.8 °C 52.9 °F /  11.6 °C 30in /  1015.2hPa NNW 4mph /  6.4km/h 4mph /  6.4km/h 81% 0in /  0.0mm 0 W/m2
21:54 58.5 °F /  14.7 °C 53.1 °F /  11.7 °C 30in /  1015.2hPa WNW 0.9mph /  1.4km/h 4mph /  6.4km/h 82% 0in /  0.0mm 0 W/m2
21:59 58.5 °F /  14.7 °C 53.1 °F /  11.7 °C 30in /  1015.2hPa NW 4mph /  6.4km/h 7mph /  11.3km/h 82% 0in /  0.0mm 0 W/m2
22:04 58.5 °F /  14.7 °C 53.1 °F /  11.7 °C 30in /  1015.2hPa WNW 0.9mph /  1.4km/h 4mph /  6.4km/h 82% 0in /  0.0mm 0 W/m2
22:09 58.5 °F /  14.7 °C 53.1 °F /  11.7 °C 30in /  1015.2hPa WNW 0.9mph /  1.4km/h 4mph /  6.4km/h 82% 0in /  0.0mm 0 W/m2
22:14 58.5 °F /  14.7 °C 52.7 °F /  11.5 °C 30in /  1015.2hPa West 2.9mph /  4.7km/h 4mph /  6.4km/h 81% 0in /  0.0mm 0 W/m2
22:19 58.6 °F /  14.8 °C 52.9 °F /  11.6 °C 30in /  1015.2hPa WNW 0.9mph /  1.4km/h 6mph /  9.7km/h 81% 0in /  0.0mm 0 W/m2
22:25 58.6 °F /  14.8 °C 52.9 °F /  11.6 °C 30in /  1015.2hPa Calm   3mph /  4.8km/h 81% 0in /  0.0mm 0 W/m2
22:30 58.6 °F /  14.8 °C 52.5 °F /  11.4 °C 30in /  1015.2hPa North 4mph /  6.4km/h 4mph /  6.4km/h 80% 0in /  0.0mm 0 W/m2
22:40 58.6 °F /  14.8 °C 52.5 °F /  11.4 °C 30in /  1015.2hPa NW 2.9mph /  4.7km/h 5mph /  8km/h 80% 0in /  0.0mm 0 W/m2
22:45 58.6 °F /  14.8 °C 52.5 °F /  11.4 °C 30in /  1015.2hPa NNW 2mph /  3.2km/h 4mph /  6.4km/h 80% 0in /  0.0mm 0 W/m2
22:50 58.8 °F /  14.9 °C 52.7 °F /  11.5 °C 30in /  1015.2hPa WNW 0.9mph /  1.4km/h 4mph /  6.4km/h 80% 0in /  0.0mm 0 W/m2
22:55 58.6 °F /  14.8 °C 52.5 °F /  11.4 °C 30in /  1015.2hPa WNW 4mph /  6.4km/h 8mph /  12.9km/h 80% 0in /  0.0mm 0 W/m2
23:00 58.6 °F /  14.8 °C 52.5 °F /  11.4 °C 30in /  1015.2hPa North 2mph /  3.2km/h 8mph /  12.9km/h 80% 0in /  0.0mm 0 W/m2
23:05 58.6 °F /  14.8 °C 52.5 °F /  11.4 °C 30in /  1015.2hPa NNW 2mph /  3.2km/h 8mph /  12.9km/h 80% 0in /  0.0mm 0 W/m2
23:10 58.6 °F /  14.8 °C 52.5 °F /  11.4 °C 30in /  1015.2hPa NW 0.9mph /  1.4km/h 4mph /  6.4km/h 80% 0in /  0.0mm 0 W/m2
23:15 58.8 °F /  14.9 °C 52.7 °F /  11.5 °C 30in /  1015.2hPa North 0.9mph /  1.4km/h 8mph /  12.9km/h 80% 0in /  0.0mm 0 W/m2
23:20 58.8 °F /  14.9 °C 52.3 °F /  11.3 °C 30in /  1015.2hPa North 0.9mph /  1.4km/h 3mph /  4.8km/h 79% 0in /  0.0mm 0 W/m2
23:25 58.8 °F /  14.9 °C 52.7 °F /  11.5 °C 30in /  1015.2hPa West 0.9mph /  1.4km/h 3mph /  4.8km/h 80% 0in /  0.0mm 0 W/m2
23:30 58.8 °F /  14.9 °C 52.3 °F /  11.3 °C 30in /  1015.2hPa NE 4mph /  6.4km/h 5mph /  8km/h 79% 0in /  0.0mm 0 W/m2
23:35 58.8 °F /  14.9 °C 52.3 °F /  11.3 °C 30in /  1015.2hPa ENE 2mph /  3.2km/h 3mph /  4.8km/h 79% 0in /  0.0mm 0 W/m2
23:40 58.8 °F /  14.9 °C 52.3 °F /  11.3 °C 30in /  1015.2hPa NNW 2mph /  3.2km/h 3mph /  4.8km/h 79% 0in /  0.0mm 0 W/m2
23:45 58.6 °F /  14.8 °C 52.2 °F /  11.2 °C 30in /  1015.2hPa Calm   2mph /  3.2km/h 79% 0in /  0.0mm 0 W/m2
23:50 58.6 °F /  14.8 °C 52.5 °F /  11.4 °C 30in /  1015.2hPa Calm   2mph /  3.2km/h 80% 0in /  0.0mm 0 W/m2
23:55 58.5 °F /  14.7 °C 52.3 °F /  11.3 °C 30in /  1015.6hPa Calm   1mph /  1.6km/h 80% 0in /  0.0mm 0 W/m2
Juneau County Weather
Compliments of Weather Underground - 4 mb